OBBI Airport Information

Runway Information
Runway 12L Length 12979 ft width 197 ft
Elevation 6 ft Threshold 1000 ft Heading 123
Runway 30R Length 12979 ft Width 197 ft
Elevation 6 ft Threshold 1000 ft Heading 303
Runway 12R Length 8302 ft width 148 ft
Elevation 7 ft Threshold 1000 ft Heading 123
Runway 30L Length 8302 ft Width 148 ft
Elevation 6 ft Threshold 395 ft Heading 303
Airport Frequencies
Type APP Name APP Frequency 127.85 MHZ
Type ATIS Name ATIS Frequency 127.2 MHZ
Type GND Name GND Frequency 121.675 MHZ
Type OPS Name ATOC Frequency 32.175 MHZ
Type TWR Name TWR Frequency 118.5 MHZ
Airport Navaids
Type VOR-DME Name Bahrain Frequency 115300 KHZ
Type NDB Name Bahrain Frequency 395 KHZ
Airport Weather Information & NOTAM
ADDS - METARS form results

(0657 UTC 03 December 2021)
Data provider http://aviationweather.gov/metar/data/
 
METAR text: OBBI 030630Z 33018KT 9999 FEW030 24/16 Q1019 NOSIG
Conditions at: OBBI (BAHRAIN INTL ARP, BH) observed 0630 UTC 03 December 2021
Temperature: 24.0°C (75°F)
Dewpoint: 16.0°C (61°F) [RH = 61%]
Pressure (altimeter): 30.09 inches Hg (1019.0 mb)
Winds: from the NNW (330 degrees) at 21 MPH (18 knots; 9.3 m/s)
Visibility: 6 or more miles (10+ km)
Ceiling: at least 12,000 feet AGL
Clouds: few clouds at 3000 feet AGL
Weather: no significant weather observed at this time

METAR text: OBBI 030600Z 33017KT 9999 FEW030 24/16 Q1019 NOSIG
Conditions at: OBBI (BAHRAIN INTL ARP, BH) observed 0600 UTC 03 December 2021
Temperature: 24.0°C (75°F)
Dewpoint: 16.0°C (61°F) [RH = 61%]
Pressure (altimeter): 30.09 inches Hg (1019.0 mb)
Winds: from the NNW (330 degrees) at 20 MPH (17 knots; 8.7 m/s)
Visibility: 6 or more miles (10+ km)
Ceiling: at least 12,000 feet AGL
Clouds: few clouds at 3000 feet AGL
Weather: no significant weather observed at this time

Forecast for: OBBI (BAHRAIN INTL ARP, BH)
Text: TAF OBBI 030500Z 0306/0412 33020KT 9999 SCT025
Forecast period: 0600 UTC 03 December 2021 to 1200 UTC 04 December 2021
Forecast type: FROM: standard forecast or significant change
Winds: from the NNW (330 degrees) at 23 MPH (20 knots; 10.3 m/s)
Visibility: 6 or more miles (10+ km)
Ceiling: at least 12,000 feet AGL
Clouds: scattered clouds at 2500 feet AGL
Weather: no significant weather forecast for this period